DLH161 EHAM-EDDH
Flight info
| Callsign | DLH161 |
|---|---|
| Flight time | N/A |
| Altitude | 35000 |
| Route | ANDIK M105 RIBSO RIBSO7A |
| Aircraft | A320/M-SDE3FGHIRWY/LB1 |
Departure
| Time | N/A |
|---|---|
| Airport | Amsterdam Airport Schiphol (EHAM) |
Arrival
| Time | 2026-05-01 07:40 |
|---|---|
| Airport | Hamburg Helmut Schmidt Airport (EDDH) |
| Time | Latitude | Longitude | Altitude | Speed | Heading |
|---|---|---|---|---|---|
| 2026-05-01 07:23 | 53.27986 | 7.92803 | 25198 ft | 411 kts | 71° |
| 2026-05-01 07:23 | 53.29705 | 8.01851 | 23954 ft | 405 kts | 72° |
| 2026-05-01 07:24 | 53.30548 | 8.06329 | 23312 ft | 402 kts | 72° |
| 2026-05-01 07:24 | 53.31377 | 8.10756 | 22755 ft | 396 kts | 72° |
| 2026-05-01 07:24 | 53.32194 | 8.15117 | 22214 ft | 391 kts | 73° |
| 2026-05-01 07:24 | 53.33033 | 8.19426 | 21700 ft | 386 kts | 71° |
| 2026-05-01 07:25 | 53.33948 | 8.23614 | 21187 ft | 381 kts | 70° |
| 2026-05-01 07:25 | 53.34911 | 8.27724 | 20709 ft | 376 kts | 69° |
| 2026-05-01 07:25 | 53.35884 | 8.31764 | 20229 ft | 372 kts | 69° |
| 2026-05-01 07:25 | 53.36847 | 8.35765 | 19742 ft | 369 kts | 69° |
| 2026-05-01 07:26 | 53.37787 | 8.39743 | 19274 ft | 366 kts | 70° |
| 2026-05-01 07:26 | 53.38709 | 8.43708 | 18778 ft | 364 kts | 70° |
| 2026-05-01 07:26 | 53.39604 | 8.47660 | 18251 ft | 361 kts | 72° |
| 2026-05-01 07:26 | 53.40192 | 8.51714 | 17747 ft | 357 kts | 83° |
| 2026-05-01 07:27 | 53.40361 | 8.55838 | 17251 ft | 353 kts | 90° |
| 2026-05-01 07:27 | 53.40420 | 8.59945 | 16747 ft | 351 kts | 89° |
| 2026-05-01 07:27 | 53.40487 | 8.63963 | 16248 ft | 349 kts | 89° |
| 2026-05-01 07:27 | 53.40559 | 8.68039 | 15738 ft | 348 kts | 89° |
| 2026-05-01 07:28 | 53.40630 | 8.72095 | 15230 ft | 347 kts | 89° |
| 2026-05-01 07:28 | 53.40696 | 8.76133 | 14720 ft | 345 kts | 90° |
| 2026-05-01 07:28 | 53.40756 | 8.80146 | 14193 ft | 344 kts | 89° |
| 2026-05-01 07:28 | 53.40815 | 8.84143 | 13632 ft | 342 kts | 89° |
| 2026-05-01 07:29 | 53.40876 | 8.88111 | 13091 ft | 339 kts | 89° |
| 2026-05-01 07:29 | 53.40937 | 8.92052 | 12582 ft | 336 kts | 89° |
| 2026-05-01 07:29 | 53.40993 | 8.95953 | 12050 ft | 334 kts | 89° |
| 2026-05-01 07:29 | 53.41046 | 8.99829 | 11511 ft | 331 kts | 90° |
| 2026-05-01 07:30 | 53.41098 | 9.03635 | 11227 ft | 316 kts | 90° |
| 2026-05-01 07:30 | 53.41147 | 9.07185 | 10974 ft | 294 kts | 90° |
| 2026-05-01 07:30 | 53.41191 | 9.10563 | 10717 ft | 287 kts | 90° |
| 2026-05-01 07:30 | 53.41230 | 9.13871 | 10456 ft | 281 kts | 90° |
| 2026-05-01 07:31 | 53.41269 | 9.17119 | 10181 ft | 276 kts | 90° |
| 2026-05-01 07:31 | 53.41372 | 9.26633 | 9312 ft | 271 kts | 90° |
| 2026-05-01 07:32 | 53.41442 | 9.32972 | 8586 ft | 269 kts | 89° |
| 2026-05-01 07:32 | 53.41637 | 9.36029 | 8236 ft | 266 kts | 83° |
| 2026-05-01 07:33 | 53.42167 | 9.42093 | 7587 ft | 259 kts | 83° |
| 2026-05-01 07:33 | 53.42421 | 9.45057 | 7278 ft | 255 kts | 83° |
| 2026-05-01 07:33 | 53.42909 | 9.50862 | 6640 ft | 248 kts | 83° |
| 2026-05-01 07:34 | 53.43149 | 9.53703 | 6304 ft | 244 kts | 83° |
| 2026-05-01 07:34 | 53.43710 | 9.59174 | 5645 ft | 237 kts | 72° |
| 2026-05-01 07:34 | 53.44499 | 9.61601 | 5368 ft | 238 kts | 55° |
| 2026-05-01 07:35 | 53.45545 | 9.63750 | 5074 ft | 237 kts | 52° |
| 2026-05-01 07:35 | 53.46614 | 9.65845 | 4757 ft | 236 kts | 52° |
| 2026-05-01 07:35 | 53.47683 | 9.67964 | 4436 ft | 236 kts | 52° |
| 2026-05-01 07:35 | 53.48736 | 9.70068 | 4122 ft | 235 kts | 52° |
| 2026-05-01 07:36 | 53.49786 | 9.72169 | 3808 ft | 234 kts | 52° |
| 2026-05-01 07:36 | 53.50801 | 9.74199 | 3500 ft | 226 kts | 52° |
| 2026-05-01 07:36 | 53.51791 | 9.76181 | 3205 ft | 218 kts | 52° |
| 2026-05-01 07:36 | 53.52752 | 9.78109 | 2913 ft | 212 kts | 52° |
| 2026-05-01 07:37 | 53.54607 | 9.81830 | 2362 ft | 205 kts | 52° |
| 2026-05-01 07:37 | 53.55529 | 9.83685 | 2065 ft | 207 kts | 52° |
| 2026-05-01 07:37 | 53.56455 | 9.85546 | 1782 ft | 208 kts | 52° |
| 2026-05-01 07:38 | 53.57363 | 9.87372 | 1503 ft | 197 kts | 52° |
| 2026-05-01 07:38 | 53.58217 | 9.89082 | 1386 ft | 184 kts | 52° |
| 2026-05-01 07:38 | 53.59708 | 9.92100 | 918 ft | 155 kts | 52° |
| 2026-05-01 07:39 | 53.60392 | 9.93489 | 586 ft | 152 kts | 51° |
| 2026-05-01 07:39 | 53.61054 | 9.94809 | 381 ft | 143 kts | 50° |
| 2026-05-01 07:39 | 53.62290 | 9.97304 | 46 ft | 132 kts | 52° |
| 2026-05-01 07:40 | 53.62788 | 9.98316 | 43 ft | 88 kts | 50° |
| 2026-05-01 07:40 | 53.63114 | 9.98967 | 46 ft | 64 kts | 51° |
| 2026-05-01 07:40 | 53.63291 | 9.99406 | 45 ft | 30 kts | 78° |
| 2026-05-01 07:40 | 53.63277 | 9.99693 | 48 ft | 22 kts | 97° |
| 2026-05-01 07:41 | 53.63347 | 9.99893 | 48 ft | 21 kts | 50° |
| 2026-05-01 07:41 | 53.63433 | 10.00099 | 48 ft | 18 kts | 84° |
| 2026-05-01 07:41 | 53.63280 | 10.00257 | 48 ft | 7 kts | 59° |
| 2026-05-01 07:42 | 53.63291 | 10.00326 | 48 ft | 6 kts | 85° |
| 2026-05-01 07:42 | 53.63292 | 10.00344 | 48 ft | 0 kts | 89° |
| 2026-05-01 07:42 | 53.63292 | 10.00359 | 48 ft | 2 kts | 88° |
| 2026-05-01 07:42 | 53.63292 | 10.00362 | 48 ft | 0 kts | 88° |
| 2026-05-01 08:12 | 53.63292 | 10.00361 | 49 ft | 0 kts | 88° |
| 2026-05-01 08:56 | 53.63292 | 10.00360 | 49 ft | 0 kts | 88° |